createdAt,value
2018-03-26T03:01:00.039Z,35.60
2018-03-26T03:03:29.126Z,39.70
2018-03-26T03:05:57.459Z,38.37
2018-03-26T03:08:25.780Z,37.40
2018-03-26T03:10:54.120Z,38.97
2018-03-26T03:13:22.448Z,40.77
2018-03-26T03:15:51.540Z,40.23
2018-03-26T03:18:19.850Z,36.57
2018-03-26T03:20:48.188Z,35.47
2018-03-26T03:23:16.503Z,34.77
2018-03-26T03:25:44.834Z,36.23
2018-03-26T03:28:13.161Z,35.70
2018-03-26T03:30:41.588Z,39.67
2018-03-26T03:33:09.920Z,37.37
2018-03-26T03:35:38.231Z,31.60
2018-03-26T03:38:06.613Z,34.03
2018-03-26T03:40:34.896Z,37.20
2018-03-26T03:43:03.240Z,40.40
2018-03-26T03:45:31.561Z,33.67
2018-03-26T03:47:59.971Z,37.57
2018-03-26T03:50:28.282Z,33.50
2018-03-26T03:52:56.619Z,35.00
2018-03-26T03:55:25.705Z,38.90
2018-03-26T03:57:54.045Z,38.93
2018-03-26T04:00:22.369Z,38.43
2018-03-26T04:02:51.477Z,36.60
2018-03-26T04:05:27.602Z,34.33
2018-03-26T04:07:57.464Z,35.03
2018-03-26T04:10:25.829Z,35.73
2018-03-26T04:12:54.177Z,38.20
2018-03-26T04:15:23.999Z,33.83
2018-03-26T04:17:52.343Z,41.80
2018-03-26T04:20:20.672Z,42.00
2018-03-26T04:22:49.783Z,38.13
2018-03-26T04:25:18.096Z,38.43
2018-03-26T04:27:46.416Z,40.90
2018-03-26T04:30:14.760Z,40.57
2018-03-26T04:32:43.066Z,34.23
2018-03-26T04:35:12.191Z,36.10
2018-03-26T04:37:40.496Z,34.90
2018-03-26T04:40:08.828Z,33.70
2018-03-26T04:42:37.934Z,34.80
2018-03-26T04:45:06.268Z,35.93
2018-03-26T04:47:34.585Z,32.80
2018-03-26T04:50:03.690Z,37.57
2018-03-26T04:52:32.014Z,33.80
2018-03-26T04:55:00.356Z,38.13
2018-03-26T04:57:28.677Z,35.70
2018-03-26T04:59:57.067Z,31.50
2018-03-26T05:02:25.371Z,38.00
2018-03-26T05:04:53.708Z,37.57
2018-03-26T05:07:22.038Z,44.30
2018-03-26T05:09:51.136Z,35.40
2018-03-26T05:12:19.446Z,35.73
2018-03-26T05:14:47.770Z,45.93
2018-03-26T05:17:16.849Z,38.20
2018-03-26T05:19:45.189Z,37.30
2018-03-26T05:22:13.493Z,31.90
2018-03-26T05:24:41.822Z,39.13
2018-03-26T05:27:10.937Z,38.83
2018-03-26T05:29:39.274Z,31.77
2018-03-26T05:32:08.452Z,35.43
2018-03-26T05:34:36.780Z,36.67
2018-03-26T05:37:05.136Z,29.00
2018-03-26T05:39:34.215Z,36.70
2018-03-26T05:42:03.310Z,34.83
2018-03-26T05:44:32.386Z,36.10
2018-03-26T05:47:00.735Z,36.60
2018-03-26T05:49:29.048Z,34.50
2018-03-26T05:51:57.384Z,36.10
2018-03-26T05:54:25.693Z,32.53
2018-03-26T05:56:54.037Z,46.93
2018-03-26T05:59:22.349Z,48.73
2018-03-26T06:01:50.678Z,44.70
2018-03-26T06:04:18.990Z,44.50
2018-03-26T06:06:47.314Z,33.40
2018-03-26T06:09:16.395Z,35.20
2018-03-26T06:11:44.719Z,38.60
2018-03-26T06:14:13.028Z,34.63
2018-03-26T06:19:44.907Z,29.40
2018-03-26T06:22:14.008Z,42.93
2018-03-26T06:24:42.317Z,39.10
2018-03-26T06:27:11.412Z,36.93
2018-03-26T06:29:40.599Z,39.53
2018-03-26T06:32:08.929Z,38.03
2018-03-26T06:34:37.253Z,40.40
2018-03-26T06:40:08.348Z,32.33
2018-03-26T06:42:37.446Z,35.33
2018-03-26T06:45:05.742Z,31.23
2018-03-26T06:47:34.062Z,33.43
2018-03-26T06:50:02.368Z,33.17
2018-03-26T06:52:31.454Z,30.47
2018-03-26T06:55:00.520Z,36.13
2018-03-26T06:57:28.863Z,31.53
2018-03-26T06:59:57.182Z,39.50
2018-03-26T07:02:25.508Z,29.00
2018-03-26T07:04:53.847Z,32.93
2018-03-26T07:07:22.144Z,30.40
2018-03-26T07:09:51.228Z,37.07
2018-03-26T07:12:19.535Z,31.23
2018-03-26T07:14:47.865Z,42.27
2018-03-26T07:17:16.168Z,29.30
2018-03-26T07:19:45.264Z,33.47
2018-03-26T07:22:13.568Z,32.93
2018-03-26T07:24:41.900Z,35.33
2018-03-26T07:27:10.227Z,37.37
2018-03-26T07:29:38.553Z,33.43
2018-03-26T07:32:06.856Z,35.23
2018-03-26T07:34:35.952Z,34.27
2018-03-26T07:37:05.006Z,37.50
2018-03-26T07:39:33.332Z,37.03
2018-03-26T07:42:02.397Z,33.37
2018-03-26T07:44:30.732Z,39.43
2018-03-26T07:46:59.030Z,34.80
2018-03-26T07:49:28.125Z,32.47
2018-03-26T07:51:56.437Z,38.50
2018-03-26T07:54:24.770Z,38.97
2018-03-26T07:56:53.071Z,39.77
2018-03-26T07:59:21.408Z,36.20
2018-03-26T08:01:49.702Z,43.50
2018-03-26T08:04:18.023Z,61.80
2018-03-26T08:06:46.318Z,44.43
2018-03-26T08:09:14.649Z,42.90
2018-03-26T08:11:42.954Z,51.83
2018-03-26T08:14:11.288Z,42.87
2018-03-26T08:16:39.583Z,44.40
2018-03-26T08:19:07.916Z,46.90
2018-03-26T08:21:36.224Z,45.53
2018-03-26T08:24:04.551Z,41.90
2018-03-26T08:26:33.635Z,44.90
2018-03-26T08:29:01.968Z,48.13
2018-03-26T08:31:30.268Z,47.53
2018-03-26T08:33:58.599Z,49.43
2018-03-26T08:36:26.934Z,48.03
2018-03-26T08:38:55.372Z,51.57
2018-03-26T08:41:23.681Z,49.90
2018-03-26T08:43:52.269Z,51.13
2018-03-26T08:46:20.568Z,48.30
2018-03-26T08:48:49.680Z,53.47
2018-03-26T08:51:18.739Z,52.03
2018-03-26T08:53:47.063Z,51.33
2018-03-26T08:56:15.406Z,54.47
2018-03-26T08:58:43.763Z,53.10
2018-03-26T09:01:12.100Z,52.33
2018-03-26T09:03:41.395Z,54.40
2018-03-26T09:06:09.726Z,65.40
2018-03-26T09:08:38.026Z,50.47
2018-03-26T09:11:07.131Z,55.97
2018-03-26T09:13:36.206Z,52.03
2018-03-26T09:16:05.332Z,55.13
2018-03-26T09:18:34.413Z,56.03
2018-03-26T09:21:02.752Z,52.90
2018-03-26T09:23:31.055Z,54.97
2018-03-26T09:25:59.382Z,50.93
2018-03-26T09:28:27.695Z,52.70
2018-03-26T09:30:56.145Z,46.13
2018-03-26T09:33:24.459Z,47.67
2018-03-26T09:35:52.792Z,50.10
2018-03-26T09:38:21.091Z,46.13
2018-03-26T09:40:49.418Z,50.50
2018-03-26T09:43:18.485Z,46.50
2018-03-26T09:45:46.825Z,42.07
2018-03-26T09:48:15.136Z,47.03
2018-03-26T09:50:43.465Z,45.17
2018-03-26T09:53:11.772Z,47.17
2018-03-26T09:55:40.099Z,48.67
2018-03-26T09:58:09.178Z,48.90
2018-03-26T10:00:43.131Z,43.23
2018-03-26T10:03:11.452Z,45.87
2018-03-26T10:05:39.776Z,43.60
2018-03-26T10:08:09.064Z,45.27
2018-03-26T10:10:38.163Z,45.60
2018-03-26T10:13:07.245Z,44.07
2018-03-26T10:15:35.582Z,44.80
2018-03-26T10:18:03.889Z,48.77
2018-03-26T10:20:33.012Z,42.43
2018-03-26T10:23:01.340Z,39.23
2018-03-26T10:25:29.683Z,38.73
2018-03-26T10:27:57.995Z,44.00
2018-03-26T10:30:26.333Z,44.80
2018-03-26T10:32:55.399Z,41.37
2018-03-26T10:35:23.736Z,41.43
2018-03-26T10:37:52.036Z,37.80
2018-03-26T10:40:20.366Z,38.37
2018-03-26T10:42:48.667Z,45.17
2018-03-26T10:45:17.024Z,48.37
2018-03-26T10:47:46.084Z,40.27
2018-03-26T10:50:14.408Z,35.53
2018-03-26T10:52:42.713Z,37.20
2018-03-26T10:55:11.046Z,39.70
2018-03-26T10:57:39.356Z,43.10
2018-03-26T11:00:08.521Z,44.20
2018-03-26T11:02:36.843Z,43.70
2018-03-26T11:05:05.994Z,48.40
2018-03-26T11:07:35.060Z,43.63
2018-03-26T11:10:03.394Z,40.47
2018-03-26T11:12:31.713Z,41.23
2018-03-26T11:15:00.060Z,49.63
2018-03-26T11:17:28.358Z,44.00
2018-03-26T11:19:56.703Z,40.10
2018-03-26T11:22:25.017Z,38.53
2018-03-26T11:24:53.335Z,41.57
2018-03-26T11:27:21.664Z,41.23
2018-03-26T11:29:50.004Z,42.70
2018-03-26T11:32:18.306Z,39.80
2018-03-26T11:34:46.610Z,42.13
2018-03-26T11:37:14.937Z,48.33
2018-03-26T11:39:43.239Z,43.00
2018-03-26T11:42:11.633Z,42.83
2018-03-26T11:44:39.949Z,47.23
2018-03-26T11:47:09.046Z,49.37
2018-03-26T11:49:37.365Z,48.97
2018-03-26T11:52:05.708Z,52.00
2018-03-26T11:54:34.040Z,57.20
2018-03-26T11:57:02.367Z,51.60
2018-03-26T11:59:30.676Z,44.87
2018-03-26T12:01:59.020Z,43.60
2018-03-26T12:04:27.367Z,50.43
2018-03-26T12:06:55.697Z,46.27
2018-03-26T12:09:24.013Z,44.37
2018-03-26T12:11:52.348Z,51.00
2018-03-26T12:14:20.660Z,48.13
2018-03-26T12:16:48.982Z,53.90
2018-03-26T12:19:18.057Z,48.13
2018-03-26T12:21:47.175Z,47.30
2018-03-26T12:24:28.246Z,49.83
2018-03-26T12:26:57.358Z,46.43
2018-03-26T12:29:37.657Z,46.00
2018-03-26T12:32:05.993Z,50.47
2018-03-26T12:34:46.058Z,55.13
2018-03-26T12:37:14.399Z,44.40
2018-03-26T12:39:43.482Z,49.70
2018-03-26T12:42:12.593Z,49.83
2018-03-26T12:44:53.410Z,53.40
2018-03-26T12:47:21.748Z,47.90
2018-03-26T12:49:50.820Z,47.70
2018-03-26T12:52:31.080Z,49.83
2018-03-26T12:54:59.386Z,52.63
2018-03-26T12:57:40.307Z,49.20
2018-03-26T13:00:08.684Z,58.77
2018-03-26T13:02:36.956Z,65.57
2018-03-26T13:05:05.255Z,65.50
2018-03-26T13:07:33.580Z,51.30
2018-03-26T13:10:01.893Z,58.97
2018-03-26T13:12:30.242Z,46.73
2018-03-26T13:14:58.555Z,54.93
2018-03-26T13:17:26.879Z,49.97
2018-03-26T13:19:55.973Z,48.07
2018-03-26T13:22:25.073Z,44.57
2018-03-26T13:24:54.140Z,45.90
2018-03-26T13:27:22.480Z,47.03
2018-03-26T13:29:50.796Z,43.60
2018-03-26T13:32:19.122Z,43.40
2018-03-26T13:34:47.437Z,45.80
2018-03-26T13:37:15.768Z,45.43
2018-03-26T13:39:44.069Z,43.10
2018-03-26T13:42:12.405Z,43.00
2018-03-26T13:44:41.501Z,47.80
2018-03-26T13:47:10.572Z,46.50
2018-03-26T13:49:38.907Z,44.00
2018-03-26T13:52:07.206Z,48.70
2018-03-26T13:54:35.541Z,50.13
2018-03-26T13:57:03.868Z,51.83
2018-03-26T13:59:32.191Z,52.43
2018-03-26T14:02:01.260Z,50.93
2018-03-26T14:04:29.599Z,46.37
2018-03-26T14:06:57.897Z,50.70
2018-03-26T14:09:38.030Z,48.40
2018-03-26T14:12:18.172Z,49.47
2018-03-26T14:14:58.141Z,45.27
2018-03-26T14:17:38.367Z,50.87
2018-03-26T14:20:06.659Z,47.13
2018-03-26T14:22:34.996Z,49.63
2018-03-26T14:25:04.063Z,47.07
2018-03-26T14:27:32.360Z,53.17
2018-03-26T14:30:00.763Z,52.97
2018-03-26T14:32:29.087Z,41.93
2018-03-26T14:35:09.333Z,54.97
2018-03-26T14:37:37.666Z,47.37
2018-03-26T14:40:06.815Z,45.50
2018-03-26T14:42:35.111Z,56.60
2018-03-26T14:45:03.437Z,47.93
2018-03-26T14:47:31.733Z,56.50
2018-03-26T14:50:00.060Z,56.27
2018-03-26T14:52:28.412Z,62.47
2018-03-26T14:54:56.757Z,53.67
2018-03-26T14:57:25.181Z,62.70
2018-03-26T14:59:53.526Z,60.13
2018-03-26T15:02:21.827Z,56.70
2018-03-26T15:04:50.155Z,57.47
2018-03-26T15:07:19.220Z,65.10
2018-03-26T15:09:47.547Z,55.50
2018-03-26T15:12:15.852Z,50.87
2018-03-26T15:14:44.163Z,54.93
2018-03-26T15:17:13.272Z,53.37
2018-03-26T15:19:42.349Z,44.87
2018-03-26T15:22:10.709Z,57.37
2018-03-26T15:24:46.664Z,49.13
2018-03-26T15:27:15.851Z,53.57
2018-03-26T15:29:44.149Z,53.50
2018-03-26T15:32:12.480Z,48.63
2018-03-26T15:34:40.789Z,46.50
2018-03-26T15:37:09.129Z,49.20
2018-03-26T15:39:37.431Z,43.20
2018-03-26T15:42:05.759Z,41.27
2018-03-26T15:44:34.841Z,39.87
2018-03-26T15:47:03.177Z,34.70
2018-03-26T15:49:31.910Z,33.50
2018-03-26T15:52:00.321Z,41.80
2018-03-26T15:54:28.630Z,41.10
2018-03-26T15:56:57.056Z,36.50
2018-03-26T15:59:26.272Z,37.40
2018-03-26T16:01:54.166Z,39.07
2018-03-26T16:04:22.493Z,39.53
2018-03-26T16:06:50.818Z,38.77
2018-03-26T16:09:19.126Z,36.00
2018-03-26T16:11:47.488Z,53.30
2018-03-26T16:14:15.800Z,42.50
2018-03-26T16:16:44.140Z,35.60
2018-03-26T16:19:12.453Z,41.00
2018-03-26T16:21:40.782Z,39.30
2018-03-26T16:24:09.076Z,38.53
2018-03-26T16:26:37.401Z,40.03
2018-03-26T16:29:06.482Z,41.43
2018-03-26T16:31:34.877Z,43.73
2018-03-26T16:34:03.172Z,43.27
2018-03-26T16:36:31.528Z,34.40
2018-03-26T16:39:00.612Z,40.23
2018-03-26T16:41:41.673Z,45.30
2018-03-26T16:44:09.984Z,40.47
2018-03-26T16:46:39.113Z,37.10
2018-03-26T16:49:07.397Z,41.07
2018-03-26T16:51:35.700Z,46.27
2018-03-26T16:54:04.035Z,41.70
2018-03-26T16:56:32.343Z,41.80
2018-03-26T16:59:00.671Z,36.87
2018-03-26T17:01:29.730Z,35.57
2018-03-26T17:03:58.066Z,37.00
2018-03-26T17:06:26.364Z,39.30
2018-03-26T17:08:54.697Z,37.83
2018-03-26T17:11:23.767Z,37.50
2018-03-26T17:13:52.343Z,40.30
2018-03-26T17:16:20.655Z,35.57
2018-03-26T17:18:49.734Z,36.43
2018-03-26T17:21:18.041Z,40.80
2018-03-26T17:23:46.386Z,47.50
2018-03-26T17:26:14.679Z,60.67
2018-03-26T17:28:43.784Z,47.20
2018-03-26T17:31:12.857Z,57.53
2018-03-26T17:33:41.183Z,58.60
2018-03-26T17:36:09.487Z,44.37
2018-03-26T17:38:38.623Z,53.90
2018-03-26T17:41:07.725Z,48.27
2018-03-26T17:43:36.816Z,47.20
2018-03-26T17:46:05.132Z,45.67
2018-03-26T17:48:33.470Z,45.40
2018-03-26T17:51:02.549Z,46.03
2018-03-26T17:53:30.866Z,49.00
2018-03-26T17:55:59.163Z,45.43
2018-03-26T17:58:27.482Z,48.33
2018-03-26T18:00:55.790Z,53.70
2018-03-26T18:03:24.119Z,48.30
2018-03-26T18:05:52.406Z,49.30
2018-03-26T18:08:20.748Z,47.33
2018-03-26T18:10:49.073Z,49.03
2018-03-26T18:13:17.401Z,50.90
2018-03-26T18:15:45.701Z,52.87
2018-03-26T18:18:14.083Z,51.60
2018-03-26T18:20:42.338Z,47.60
2018-03-26T18:23:10.659Z,56.63
2018-03-26T18:25:39.728Z,53.00
2018-03-26T18:28:08.046Z,55.57
2018-03-26T18:30:36.360Z,51.93
2018-03-26T18:33:04.688Z,50.90
2018-03-26T18:35:32.998Z,47.87
2018-03-26T18:38:01.324Z,49.77
2018-03-26T18:40:29.640Z,57.90
2018-03-26T18:42:59.495Z,53.57
2018-03-26T18:45:27.790Z,47.20
2018-03-26T18:47:56.133Z,49.03
2018-03-26T18:50:24.431Z,53.23
2018-03-26T18:52:52.755Z,48.40
2018-03-26T18:55:21.826Z,55.93
2018-03-26T18:57:50.152Z,52.20
2018-03-26T19:00:18.470Z,50.43
2018-03-26T19:02:47.553Z,53.20
2018-03-26T19:05:15.867Z,54.47
2018-03-26T19:07:44.193Z,51.53
2018-03-26T19:10:12.500Z,51.73
2018-03-26T19:12:40.820Z,56.00
2018-03-26T19:15:09.889Z,57.10
2018-03-26T19:17:38.222Z,50.83
2018-03-26T19:20:07.138Z,49.73
2018-03-26T19:22:35.454Z,52.37
2018-03-26T19:25:04.543Z,53.90
2018-03-26T19:27:33.615Z,53.70
2018-03-26T19:30:01.959Z,51.83
2018-03-26T19:32:30.264Z,54.03
2018-03-26T19:34:58.599Z,57.00
2018-03-26T19:37:26.908Z,55.03
2018-03-26T19:39:55.282Z,53.90
2018-03-26T19:42:23.587Z,58.43
2018-03-26T19:44:51.922Z,52.00
2018-03-26T19:47:20.223Z,59.63
2018-03-26T19:49:48.546Z,56.60
2018-03-26T19:52:17.612Z,57.97
2018-03-26T19:54:45.938Z,56.30
2018-03-26T19:57:15.002Z,55.97
2018-03-26T19:59:43.325Z,59.03
2018-03-26T20:02:11.673Z,59.10
2018-03-26T20:04:40.024Z,60.10
2018-03-26T20:07:08.314Z,56.90
2018-03-26T20:09:36.635Z,50.00
2018-03-26T20:12:04.947Z,51.93
2018-03-26T20:14:33.291Z,55.37
2018-03-26T20:17:01.610Z,52.33
2018-03-26T20:19:29.934Z,58.60
2018-03-26T20:21:58.257Z,52.87
2018-03-26T20:24:26.584Z,53.83
2018-03-26T20:26:54.892Z,56.87
2018-03-26T20:29:23.228Z,53.53
2018-03-26T20:31:52.305Z,53.80
2018-03-26T20:34:20.627Z,55.73
2018-03-26T20:36:48.927Z,60.30
2018-03-26T20:39:17.255Z,67.50
2018-03-26T20:41:46.320Z,61.80
2018-03-26T20:44:14.655Z,101.70
2018-03-26T20:46:42.985Z,104.33
2018-03-26T20:49:12.101Z,93.10
2018-03-26T20:51:41.169Z,70.13
2018-03-26T20:54:09.493Z,65.87
2018-03-26T20:56:37.803Z,65.13
2018-03-26T20:59:06.134Z,59.83
2018-03-26T21:01:35.212Z,56.40
2018-03-26T21:04:04.321Z,56.20
2018-03-26T21:06:33.384Z,56.87
2018-03-26T21:09:01.724Z,56.83
2018-03-26T21:11:30.041Z,57.47
2018-03-26T21:13:58.364Z,57.40
2018-03-26T21:16:26.678Z,58.30
2018-03-26T21:18:54.998Z,56.57
2018-03-26T21:21:24.077Z,60.07
2018-03-26T21:23:52.395Z,56.40
2018-03-26T21:26:20.702Z,56.50
2018-03-26T21:28:49.024Z,56.20
2018-03-26T21:31:17.328Z,53.60
2018-03-26T21:33:45.658Z,71.43
2018-03-26T21:36:13.956Z,63.87
2018-03-26T21:38:43.057Z,64.80
2018-03-26T21:41:12.133Z,55.03
2018-03-26T21:43:40.463Z,61.10
2018-03-26T21:46:08.758Z,59.90
2018-03-26T21:48:37.082Z,66.67
2018-03-26T21:51:06.149Z,58.63
2018-03-26T21:53:34.471Z,53.83
2018-03-26T21:56:03.531Z,59.03
2018-03-26T21:58:31.874Z,56.83
2018-03-26T22:01:00.180Z,58.70
2018-03-26T22:03:28.486Z,57.00
2018-03-26T22:05:57.601Z,59.03
2018-03-26T22:08:25.929Z,57.33
2018-03-26T22:10:54.249Z,57.80
2018-03-26T22:13:23.311Z,62.03
2018-03-26T22:15:51.635Z,57.07
2018-03-26T22:18:19.931Z,66.27
2018-03-26T22:20:48.267Z,67.13
2018-03-26T22:23:17.349Z,57.10
2018-03-26T22:25:45.671Z,54.33
2018-03-26T22:28:13.976Z,56.23
2018-03-26T22:30:42.303Z,55.83
2018-03-26T22:33:11.375Z,56.10
2018-03-26T22:35:39.700Z,60.10
2018-03-26T22:38:08.000Z,61.00
2018-03-26T22:40:36.325Z,61.10
2018-03-26T22:43:05.386Z,58.60
2018-03-26T22:45:33.703Z,59.53
2018-03-26T22:48:02.785Z,64.37
2018-03-26T22:50:31.177Z,58.10
